Time;durP1;ratioP1;P1;durP2;ratioP2;P2;SDS_P1;SDS_P2;PMS_P1;PMS_P2;Temp;Humidity;BMP_temperature;BMP_pressure;BME280_temperature;BME280_humidity;BME280_pressure;Samples;Min_cycle;Max_cycle;Signal;HPM_P1;HPM_P2
2022/01/31 00:02:02;;;;;;;;;;;2.70;99.90;;;;;;4994052;28;19956;-95
2022/01/31 00:04:29;;;;;;;;;;;2.70;99.90;;;;;;4992983;28;19937;-94
2022/01/31 00:06:58;;;;;;;;;;;2.70;99.90;;;;;;4989606;28;19927;-94
2022/01/31 00:09:26;;;;;;;;;;;2.70;99.90;;;;;;4993512;28;19930;-94
2022/01/31 00:12:00;;;;;;;;;;;2.60;99.90;;;;;;4998598;28;20205;-94
2022/01/31 00:14:43;;;;;;;;;;;2.60;99.90;;;;;;4989702;28;19974;-94
2022/01/31 00:17:13;;;;;;;;;;;2.60;99.90;;;;;;4995235;28;19917;-94
2022/01/31 00:19:41;;;;;;;;;;;2.60;99.90;;;;;;4994107;28;19914;-95
2022/01/31 00:22:11;;;;;;;;;;;2.60;99.90;;;;;;4994677;28;19977;-95
2022/01/31 00:24:39;;;;;;;;;;;2.60;99.90;;;;;;4998421;28;19953;-94
2022/01/31 00:27:10;;;;;;;;;;;2.60;99.90;;;;;;4994835;28;19934;-94
2022/01/31 00:29:37;;;;;;;;;;;2.60;99.90;;;;;;4992561;28;19917;-94
2022/01/31 00:32:06;;;;;;;;;;;2.50;99.90;;;;;;5010754;28;19926;-94
2022/01/31 00:34:33;;;;;;;;;;;2.50;99.90;;;;;;4994335;28;19973;-95
2022/01/31 00:37:01;;;;;;;;;;;2.50;99.90;;;;;;5008191;28;19961;-95
2022/01/31 00:39:33;;;;;;;;;;;2.50;99.90;;;;;;4998611;28;19914;-94
2022/01/31 00:42:02;;;;;;;;;;;2.50;99.90;;;;;;4994622;28;19949;-94
2022/01/31 00:44:42;;;;;;;;;;;2.50;99.90;;;;;;4994162;28;19917;-94
2022/01/31 00:47:19;;;;;;;;;;;2.50;99.90;;;;;;4990431;28;19926;-94
2022/01/31 00:49:51;;;;;;;;;;;2.50;99.90;;;;;;4990141;28;19922;-95
2022/01/31 00:52:20;;;;;;;;;;;2.50;99.90;;;;;;4998151;28;19968;-94
2022/01/31 00:54:48;;;;;;;;;;;2.40;99.90;;;;;;4994496;28;19926;-95
2022/01/31 00:57:15;;;;;;;;;;;2.40;99.90;;;;;;4992934;28;19914;-95
2022/01/31 00:59:44;;;;;;;;;;;2.40;99.90;;;;;;4994219;28;19932;-93
2022/01/31 01:02:12;;;;;;;;;;;2.40;99.90;;;;;;4989868;28;20017;-95
2022/01/31 01:04:40;;;;;;;;;;;2.40;99.90;;;;;;4992786;28;19926;-94
2022/01/31 01:07:08;;;;;;;;;;;2.40;99.90;;;;;;4991228;28;19934;-94
2022/01/31 01:09:37;;;;;;;;;;;2.40;99.90;;;;;;4994568;28;19926;-94
2022/01/31 01:12:09;;;;;;;;;;;2.40;99.90;;;;;;4988786;28;19930;-94
2022/01/31 01:14:38;;;;;;;;;;;2.30;99.90;;;;;;4995040;28;19922;-95
2022/01/31 01:17:08;;;;;;;;;;;2.30;99.90;;;;;;4993069;28;19918;-93
2022/01/31 01:19:36;;;;;;;;;;;2.40;99.90;;;;;;4994999;28;19910;-94
2022/01/31 01:22:06;;;;;;;;;;;2.40;99.90;;;;;;4992592;28;19934;-94
2022/01/31 01:24:34;;;;;;;;;;;2.30;99.90;;;;;;4992840;28;19950;-94
2022/01/31 01:27:02;;;;;;;;;;;2.30;99.90;;;;;;4994033;28;19926;-94
2022/01/31 01:29:30;;;;;;;;;;;2.30;99.90;;;;;;5011639;28;19936;-94
2022/01/31 01:32:10;;;;;;;;;;;2.30;99.90;;;;;;4993742;28;19926;-95
2022/01/31 01:34:39;;;;;;;;;;;2.30;99.90;;;;;;4994544;28;19933;-94
2022/01/31 01:37:07;;;;;;;;;;;2.30;99.90;;;;;;4996249;28;19934;-95
2022/01/31 01:39:36;;;;;;;;;;;2.30;99.90;;;;;;4996850;28;19921;-94
2022/01/31 01:42:04;;;;;;;;;;;2.30;99.90;;;;;;4994003;28;19980;-94
2022/01/31 01:48:06;;;;;;;;;;;2.30;99.90;;;;;;4997156;28;19970;-94
2022/01/31 01:56:43;;;;;;;;;;;2.20;99.90;;;;;;4988732;28;19949;-81
2022/01/31 01:59:10;;;;;;;;;;;2.20;99.90;;;;;;4993783;28;19950;-80
2022/01/31 02:01:49;;;;;;;;;;;2.20;99.90;;;;;;4987163;28;20021;-80
2022/01/31 02:04:16;;;;;;;;;;;2.20;99.90;;;;;;4982195;28;20348;-81
2022/01/31 02:06:45;;;;;;;;;;;2.20;99.90;;;;;;4978747;28;19927;-80
2022/01/31 02:09:12;;;;;;;;;;;2.20;99.90;;;;;;4980387;28;20313;-80
2022/01/31 02:11:40;;;;;;;;;;;2.20;99.90;;;;;;4986332;28;19986;-81
2022/01/31 02:14:11;;;;;;;;;;;2.20;99.90;;;;;;4980821;28;19930;-80
2022/01/31 02:17:04;;;;;;;;;;;2.10;99.90;;;;;;4969194;28;19933;-80
2022/01/31 02:19:38;;;;;;;;;;;2.10;99.90;;;;;;4977376;28;19910;-81
2022/01/31 02:22:10;;;;;;;;;;;2.20;99.90;;;;;;4981529;28;19927;-81
2022/01/31 02:25:00;;;;;;;;;;;2.10;99.90;;;;;;4973792;28;19990;-81
2022/01/31 02:27:28;;;;;;;;;;;2.20;99.90;;;;;;4990927;28;19965;-80
2022/01/31 02:29:55;;;;;;;;;;;2.20;99.90;;;;;;4985492;28;19930;-81
2022/01/31 02:32:24;;;;;;;;;;;2.20;99.90;;;;;;4991204;28;20499;-81
2022/01/31 02:34:56;;;;;;;;;;;2.10;99.90;;;;;;4978635;28;19926;-80
2022/01/31 02:37:24;;;;;;;;;;;2.20;99.90;;;;;;4975781;28;19933;-80
2022/01/31 02:39:55;;;;;;;;;;;2.10;99.90;;;;;;4990995;28;19937;-81
2022/01/31 02:42:23;;;;;;;;;;;2.10;99.90;;;;;;4978936;28;19950;-81
2022/01/31 02:44:50;;;;;;;;;;;2.10;99.90;;;;;;4977016;28;19936;-81
2022/01/31 02:47:24;;;;;;;;;;;2.10;99.90;;;;;;4976090;28;19927;-81
2022/01/31 02:49:57;;;;;;;;;;;2.10;99.90;;;;;;4975341;28;19958;-80
2022/01/31 02:52:30;;;;;;;;;;;2.10;99.90;;;;;;4976330;28;19930;-81
2022/01/31 02:54:57;;;;;;;;;;;2.10;99.90;;;;;;4986086;28;19926;-81
2022/01/31 02:57:25;;;;;;;;;;;2.10;99.90;;;;;;4975787;28;19934;-80
2022/01/31 02:59:52;;;;;;;;;;;2.10;99.90;;;;;;4982873;28;19935;-80
2022/01/31 03:02:23;;;;;;;;;;;2.20;99.90;;;;;;4981173;28;19926;-80
2022/01/31 03:04:50;;;;;;;;;;;2.10;99.90;;;;;;4974932;28;19911;-81
2022/01/31 03:07:17;;;;;;;;;;;2.10;99.90;;;;;;4973732;28;19966;-80
2022/01/31 03:09:46;;;;;;;;;;;2.10;99.90;;;;;;4976388;28;19930;-81
2022/01/31 03:12:22;;;;;;;;;;;2.10;99.90;;;;;;4977525;28;19958;-80
2022/01/31 03:14:58;;;;;;;;;;;2.10;99.90;;;;;;4980455;28;19910;-80
2022/01/31 03:17:50;;;;;;;;;;;2.00;99.90;;;;;;4974769;28;19934;-80
2022/01/31 03:20:19;;;;;;;;;;;2.10;99.90;;;;;;4976325;28;19926;-81
2022/01/31 03:22:46;;;;;;;;;;;2.10;99.90;;;;;;4972328;28;19930;-80
2022/01/31 03:25:16;;;;;;;;;;;2.10;99.90;;;;;;4975510;28;20013;-81
2022/01/31 03:27:43;;;;;;;;;;;2.10;99.90;;;;;;4966013;28;19998;-80
2022/01/31 03:30:12;;;;;;;;;;;2.10;99.90;;;;;;4984462;28;19926;-80
2022/01/31 03:32:39;;;;;;;;;;;2.10;99.90;;;;;;4978620;28;19934;-80
2022/01/31 03:35:08;;;;;;;;;;;2.10;99.90;;;;;;4974671;28;19930;-81
2022/01/31 03:37:35;;;;;;;;;;;2.10;99.90;;;;;;4974924;28;20581;-81
2022/01/31 03:40:04;;;;;;;;;;;2.10;99.90;;;;;;4980902;28;19953;-82
2022/01/31 03:42:32;;;;;;;;;;;2.10;99.90;;;;;;4981118;28;19910;-80
2022/01/31 03:45:00;;;;;;;;;;;2.10;99.90;;;;;;4978716;28;19934;-81
2022/01/31 03:47:27;;;;;;;;;;;2.10;99.90;;;;;;4979207;28;19950;-81
2022/01/31 03:49:54;;;;;;;;;;;2.10;99.90;;;;;;4969008;28;19934;-81
2022/01/31 03:52:23;;;;;;;;;;;2.10;99.90;;;;;;4982621;28;19954;-81
2022/01/31 03:54:51;;;;;;;;;;;2.10;99.90;;;;;;4987309;28;19922;-81
2022/01/31 03:57:19;;;;;;;;;;;2.20;99.90;;;;;;4972167;28;19926;-81
2022/01/31 04:00:07;;;;;;;;;;;2.20;99.90;;;;;;4963976;28;19934;-81
2022/01/31 04:02:43;;;;;;;;;;;2.20;99.90;;;;;;4968969;28;19933;-81
2022/01/31 04:05:12;;;;;;;;;;;2.20;99.90;;;;;;4984837;28;19926;-82
2022/01/31 04:07:40;;;;;;;;;;;2.10;99.90;;;;;;4986162;28;19926;-81
2022/01/31 04:10:07;;;;;;;;;;;2.10;99.90;;;;;;4985923;28;20290;-81
2022/01/31 04:12:34;;;;;;;;;;;2.20;99.90;;;;;;4988467;28;19935;-81
2022/01/31 04:15:01;;;;;;;;;;;2.10;99.90;;;;;;4977023;28;19926;-81
2022/01/31 04:17:38;;;;;;;;;;;2.10;99.90;;;;;;4981318;28;20328;-81
2022/01/31 04:20:07;;;;;;;;;;;2.10;99.90;;;;;;4980434;28;19927;-81
2022/01/31 04:22:37;;;;;;;;;;;2.10;99.90;;;;;;4971926;28;19922;-81
2022/01/31 04:25:06;;;;;;;;;;;2.10;99.90;;;;;;4978513;28;19932;-81
2022/01/31 04:27:44;;;;;;;;;;;2.10;99.90;;;;;;4966237;28;19931;-81
2022/01/31 04:30:13;;;;;;;;;;;2.10;99.90;;;;;;4974079;28;19961;-82
2022/01/31 04:32:41;;;;;;;;;;;2.10;99.90;;;;;;4982055;28;19970;-81
2022/01/31 04:35:09;;;;;;;;;;;2.10;99.90;;;;;;4976227;28;19927;-81
2022/01/31 04:37:36;;;;;;;;;;;2.10;99.90;;;;;;4972815;28;19932;-81
2022/01/31 04:40:05;;;;;;;;;;;2.10;99.90;;;;;;4976812;28;20304;-81
2022/01/31 04:42:32;;;;;;;;;;;2.10;99.90;;;;;;4980174;28;19926;-81
2022/01/31 05:42:02;;;;;;;;;;;2.10;99.90;;;;;;5004572;28;19978;-91
2022/01/31 05:50:48;;;;;;;;;;;2.10;99.90;;;;;;5004741;28;19917;-88
2022/01/31 05:56:02;;;;;;;;;;;2.10;99.90;;;;;;5021548;23;20303;-84
2022/01/31 06:12:03;;;;;;;;;;;2.10;99.90;;;;;;5681503;23;19952;-84
2022/01/31 06:25:39;;;;;;;;;;;2.10;99.90;;;;;;5206732;23;19910;-88
2022/01/31 06:30:42;;;;;;;;;;;2.10;99.90;;;;;;4693049;23;19950;-82
2022/01/31 06:33:09;;;;;;;;;;;2.10;99.90;;;;;;4980466;28;19962;-82
2022/01/31 06:35:37;;;;;;;;;;;2.10;99.90;;;;;;4966690;28;19910;-80
2022/01/31 06:38:06;;;;;;;;;;;2.10;99.90;;;;;;4985051;28;19934;-81
2022/01/31 06:40:35;;;;;;;;;;;2.10;99.90;;;;;;4985719;28;19926;-81
2022/01/31 06:43:05;;;;;;;;;;;2.10;99.90;;;;;;4986598;28;19934;-85
2022/01/31 06:45:38;;;;;;;;;;;2.10;99.90;;;;;;4983107;28;19929;-82
2022/01/31 06:53:48;;;;;;;;;;;2.00;99.90;;;;;;4956024;28;19934;-81
2022/01/31 06:56:18;;;;;;;;;;;2.00;99.90;;;;;;4941281;28;19915;-82
2022/01/31 06:58:50;;;;;;;;;;;2.00;99.90;;;;;;4943583;28;19911;-85
2022/01/31 07:09:22;;;;;;;;;;;2.00;99.90;;;;;;5132500;23;19977;-81
2022/01/31 07:11:51;;;;;;;;;;;2.10;99.90;;;;;;4991791;28;19958;-81
2022/01/31 07:14:32;;;;;;;;;;;2.00;99.90;;;;;;5001728;28;19927;-81
2022/01/31 07:17:01;;;;;;;;;;;2.10;99.90;;;;;;4998305;28;19929;-82
2022/01/31 07:19:36;;;;;;;;;;;2.00;99.90;;;;;;4995664;28;19929;-83
2022/01/31 07:22:07;;;;;;;;;;;2.00;99.90;;;;;;5001573;28;19981;-80
2022/01/31 07:24:46;;;;;;;;;;;2.00;99.90;;;;;;4998923;28;19989;-81
2022/01/31 07:27:13;;;;;;;;;;;2.00;99.90;;;;;;5002840;28;19926;-80
2022/01/31 07:29:43;;;;;;;;;;;2.00;99.90;;;;;;5000871;28;19933;-82
2022/01/31 07:32:14;;;;;;;;;;;2.10;99.90;;;;;;4983185;28;19921;-81
2022/01/31 07:34:41;;;;;;;;;;;2.00;99.90;;;;;;4996491;28;19965;-80
2022/01/31 07:37:12;;;;;;;;;;;2.10;99.90;;;;;;5002945;28;19941;-83
2022/01/31 07:39:41;;;;;;;;;;;2.00;99.90;;;;;;4981982;28;19930;-80
2022/01/31 07:42:08;;;;;;;;;;;2.00;99.90;;;;;;4976391;28;19934;-81
2022/01/31 07:44:47;;;;;;;;;;;2.00;99.90;;;;;;4982315;28;19961;-82
2022/01/31 07:47:15;;;;;;;;;;;2.00;99.90;;;;;;4980498;28;19910;-83
2022/01/31 07:49:41;;;;;;;;;;;2.00;99.90;;;;;;4972138;28;19941;-80
2022/01/31 07:52:09;;;;;;;;;;;2.00;99.90;;;;;;4974901;28;20348;-82
2022/01/31 07:57:19;;;;;;;;;;;2.00;99.90;;;;;;4763890;26;19965;-82
2022/01/31 07:59:48;;;;;;;;;;;2.00;99.90;;;;;;4977080;28;19926;-81
2022/01/31 08:02:15;;;;;;;;;;;2.10;99.90;;;;;;4972493;28;19926;-81
2022/01/31 08:04:42;;;;;;;;;;;2.00;99.90;;;;;;4958309;28;20296;-81
2022/01/31 08:07:08;;;;;;;;;;;2.10;99.90;;;;;;4956960;28;19934;-81
2022/01/31 08:09:35;;;;;;;;;;;2.10;99.90;;;;;;4959115;28;19930;-81
2022/01/31 08:12:04;;;;;;;;;;;2.10;99.90;;;;;;4967413;28;19931;-81
2022/01/31 08:14:31;;;;;;;;;;;2.10;99.90;;;;;;4955593;28;19926;-81
2022/01/31 08:16:59;;;;;;;;;;;2.10;99.90;;;;;;4958479;28;19927;-81
2022/01/31 08:19:26;;;;;;;;;;;2.10;99.90;;;;;;4964219;28;20027;-81
2022/01/31 08:21:55;;;;;;;;;;;2.10;99.90;;;;;;4957131;28;20333;-81
2022/01/31 08:24:21;;;;;;;;;;;2.10;99.90;;;;;;4963458;28;20464;-81
2022/01/31 08:26:48;;;;;;;;;;;2.00;99.90;;;;;;4962186;28;19930;-81
2022/01/31 08:29:21;;;;;;;;;;;2.10;99.90;;;;;;4958863;28;20345;-81
2022/01/31 08:31:52;;;;;;;;;;;2.10;99.90;;;;;;4965336;28;19931;-82
2022/01/31 08:34:25;;;;;;;;;;;2.10;99.90;;;;;;4962219;28;19930;-81
2022/01/31 08:36:52;;;;;;;;;;;2.10;99.90;;;;;;4950638;28;20317;-80
2022/01/31 08:39:19;;;;;;;;;;;2.10;99.90;;;;;;4952726;28;20370;-81
2022/01/31 08:41:48;;;;;;;;;;;2.10;99.90;;;;;;4957467;28;19926;-81
2022/01/31 08:44:17;;;;;;;;;;;2.10;99.90;;;;;;4946443;28;20297;-81
2022/01/31 08:46:45;;;;;;;;;;;2.10;99.90;;;;;;4960829;28;19970;-81
2022/01/31 08:49:13;;;;;;;;;;;2.10;99.90;;;;;;4959288;28;20023;-81
2022/01/31 08:51:42;;;;;;;;;;;2.10;99.90;;;;;;4957033;28;20411;-82
2022/01/31 08:54:09;;;;;;;;;;;2.10;99.90;;;;;;4958718;28;19927;-81
2022/01/31 08:56:40;;;;;;;;;;;2.10;99.90;;;;;;4948651;28;19986;-81
2022/01/31 08:59:08;;;;;;;;;;;2.10;99.90;;;;;;4960589;28;19927;-81
2022/01/31 09:01:39;;;;;;;;;;;2.10;99.90;;;;;;4965408;28;19918;-81
2022/01/31 09:06:50;;;;;;;;;;;2.10;99.90;;;;;;5038642;23;19926;-81
2022/01/31 09:09:18;;;;;;;;;;;2.10;99.90;;;;;;4972222;28;19926;-81
2022/01/31 09:11:45;;;;;;;;;;;2.10;99.90;;;;;;4976623;28;19966;-81
2022/01/31 09:14:12;;;;;;;;;;;2.10;99.90;;;;;;4970006;28;19926;-81
2022/01/31 09:16:39;;;;;;;;;;;2.10;99.90;;;;;;4956972;28;19968;-81
2022/01/31 09:19:06;;;;;;;;;;;2.10;99.90;;;;;;4960123;28;19986;-81
2022/01/31 09:21:34;;;;;;;;;;;2.10;99.90;;;;;;4956383;28;20191;-81
2022/01/31 09:24:02;;;;;;;;;;;2.10;99.90;;;;;;4962865;28;19931;-81
2022/01/31 09:26:29;;;;;;;;;;;2.10;99.90;;;;;;4959728;28;19935;-81
2022/01/31 09:28:56;;;;;;;;;;;2.10;99.90;;;;;;4963216;28;19926;-81
2022/01/31 09:31:23;;;;;;;;;;;2.10;99.90;;;;;;4960996;28;19930;-81
2022/01/31 09:33:51;;;;;;;;;;;2.10;99.90;;;;;;4954190;28;19931;-81
2022/01/31 09:36:18;;;;;;;;;;;2.10;99.90;;;;;;4974075;28;19934;-83
2022/01/31 09:38:45;;;;;;;;;;;2.20;99.90;;;;;;4955490;28;19926;-81
2022/01/31 09:41:18;;;;;;;;;;;2.10;99.90;;;;;;4957328;28;19926;-81
2022/01/31 09:46:47;;;;;;;;;;;2.20;99.90;;;;;;4963386;28;19927;-81
2022/01/31 09:49:14;;;;;;;;;;;2.10;99.90;;;;;;4971832;28;19930;-82
2022/01/31 09:51:41;;;;;;;;;;;2.20;99.90;;;;;;4971579;28;19914;-82
2022/01/31 09:54:09;;;;;;;;;;;2.20;99.90;;;;;;4977585;28;19996;-82
2022/01/31 09:56:38;;;;;;;;;;;2.20;99.90;;;;;;4970456;28;20215;-82
2022/01/31 09:59:07;;;;;;;;;;;2.20;99.90;;;;;;4964604;28;19930;-81
2022/01/31 10:01:35;;;;;;;;;;;2.30;99.90;;;;;;4959385;28;19930;-81
2022/01/31 10:04:07;;;;;;;;;;;2.30;99.90;;;;;;4968193;28;20749;-81
2022/01/31 10:06:35;;;;;;;;;;;2.30;99.90;;;;;;4964242;28;19966;-82
2022/01/31 10:09:05;;;;;;;;;;;2.40;99.90;;;;;;4963209;28;19926;-81
2022/01/31 10:11:39;;;;;;;;;;;2.40;99.90;;;;;;4972785;28;20431;-81
2022/01/31 10:16:58;;;;;;;;;;;2.40;99.90;;;;;;4962376;28;19985;-81
2022/01/31 10:19:25;;;;;;;;;;;2.40;99.90;;;;;;4967314;28;20079;-81
2022/01/31 10:21:56;;;;;;;;;;;2.50;99.90;;;;;;4967374;28;19930;-81
2022/01/31 10:24:23;;;;;;;;;;;2.50;99.90;;;;;;4975026;28;19978;-85
2022/01/31 10:26:51;;;;;;;;;;;2.50;99.90;;;;;;4975969;28;19930;-84
2022/01/31 10:29:21;;;;;;;;;;;2.50;99.90;;;;;;4979087;28;19926;-86
2022/01/31 10:32:01;;;;;;;;;;;2.60;99.90;;;;;;4978022;28;19949;-82
2022/01/31 10:37:10;;;;;;;;;;;2.60;99.90;;;;;;5014482;28;19933;-83
2022/01/31 10:51:22;;;;;;;;;;;2.80;99.90;;;;;;4991520;28;19922;-81
2022/01/31 10:53:55;;;;;;;;;;;2.80;99.90;;;;;;4985591;28;19949;-81
2022/01/31 10:56:22;;;;;;;;;;;2.80;99.90;;;;;;4981942;28;19954;-85
2022/01/31 10:58:57;;;;;;;;;;;2.80;99.90;;;;;;4986662;28;19940;-83
2022/01/31 11:01:25;;;;;;;;;;;2.80;99.90;;;;;;4991467;28;19934;-82
2022/01/31 11:03:53;;;;;;;;;;;2.80;99.90;;;;;;4988009;28;19933;-83
2022/01/31 11:06:23;;;;;;;;;;;2.90;99.90;;;;;;4987503;28;19941;-82
2022/01/31 11:08:50;;;;;;;;;;;2.90;99.90;;;;;;4978484;28;19933;-81
2022/01/31 11:11:17;;;;;;;;;;;2.90;99.90;;;;;;4995153;28;19926;-81
2022/01/31 11:13:44;;;;;;;;;;;2.90;99.90;;;;;;4984284;28;19926;-83
2022/01/31 11:16:11;;;;;;;;;;;2.90;99.90;;;;;;4986742;28;19973;-82
2022/01/31 11:18:42;;;;;;;;;;;2.90;99.90;;;;;;4984092;28;19998;-83
2022/01/31 11:21:09;;;;;;;;;;;2.90;99.90;;;;;;4991293;28;19933;-83
2022/01/31 11:23:49;;;;;;;;;;;2.90;99.90;;;;;;4999101;28;19949;-83
2022/01/31 11:26:17;;;;;;;;;;;2.80;99.90;;;;;;4985724;28;19937;-81
2022/01/31 11:28:47;;;;;;;;;;;2.90;99.90;;;;;;4989487;28;19953;-81
2022/01/31 11:31:14;;;;;;;;;;;2.90;99.90;;;;;;4987426;28;19934;-82
2022/01/31 11:33:43;;;;;;;;;;;2.90;99.90;;;;;;4988949;28;19926;-83
2022/01/31 11:36:12;;;;;;;;;;;2.90;99.90;;;;;;4991484;28;19950;-82
2022/01/31 11:38:40;;;;;;;;;;;2.90;99.90;;;;;;4981961;28;19934;-82
2022/01/31 11:41:08;;;;;;;;;;;2.90;99.90;;;;;;4985912;28;19930;-82
2022/01/31 11:43:36;;;;;;;;;;;2.90;99.90;;;;;;4977479;28;19926;-82
2022/01/31 11:46:04;;;;;;;;;;;3.00;99.90;;;;;;4982657;28;19930;-82
2022/01/31 11:48:32;;;;;;;;;;;3.00;99.90;;;;;;4980345;28;20365;-81
2022/01/31 11:51:01;;;;;;;;;;;3.00;99.90;;;;;;4987043;28;19922;-83
2022/01/31 11:53:30;;;;;;;;;;;3.00;99.90;;;;;;4985860;28;19926;-83
2022/01/31 11:56:00;;;;;;;;;;;3.00;99.90;;;;;;4979396;28;20312;-82
2022/01/31 11:58:31;;;;;;;;;;;3.10;99.90;;;;;;4980001;28;20016;-83
2022/01/31 12:01:01;;;;;;;;;;;3.10;99.90;;;;;;4988733;28;20340;-82
2022/01/31 12:03:28;;;;;;;;;;;3.10;99.90;;;;;;4992309;28;19926;-83
2022/01/31 12:05:55;;;;;;;;;;;3.10;99.90;;;;;;4997291;28;19937;-82
2022/01/31 12:08:33;;;;;;;;;;;3.10;99.90;;;;;;4982376;28;20008;-82
2022/01/31 12:11:08;;;;;;;;;;;3.10;99.90;;;;;;4987165;28;20482;-82
2022/01/31 12:13:39;;;;;;;;;;;3.20;99.90;;;;;;4981300;28;19910;-83
2022/01/31 12:16:19;;;;;;;;;;;3.20;99.90;;;;;;4994729;28;20053;-84
2022/01/31 12:24:30;;;;;;;;;;;3.20;99.90;;;;;;4983162;28;20021;-85
2022/01/31 12:26:59;;;;;;;;;;;3.10;99.90;;;;;;4989450;28;19930;-82
2022/01/31 12:29:26;;;;;;;;;;;3.20;99.90;;;;;;4991296;28;19926;-83
2022/01/31 12:31:54;;;;;;;;;;;3.20;99.90;;;;;;4990015;28;19962;-83
2022/01/31 12:34:48;;;;;;;;;;;3.20;99.90;;;;;;4987575;28;19933;-82
2022/01/31 12:37:18;;;;;;;;;;;3.20;99.90;;;;;;4953476;28;19961;-84
2022/01/31 12:40:03;;;;;;;;;;;3.20;99.90;;;;;;5005372;28;19972;-82
2022/01/31 12:42:47;;;;;;;;;;;3.20;99.90;;;;;;5005485;28;19945;-84
2022/01/31 12:45:15;;;;;;;;;;;3.10;99.90;;;;;;4999176;28;19909;-82
2022/01/31 12:47:58;;;;;;;;;;;3.20;99.90;;;;;;4997775;28;19918;-83
2022/01/31 12:53:04;;;;;;;;;;;3.10;99.90;;;;;;4994338;28;19926;-82
2022/01/31 12:55:35;;;;;;;;;;;3.10;99.90;;;;;;4999318;28;19934;-83
2022/01/31 12:58:07;;;;;;;;;;;3.10;99.90;;;;;;4989117;28;19930;-83
2022/01/31 13:00:38;;;;;;;;;;;3.10;99.90;;;;;;4979448;28;19925;-82
2022/01/31 13:03:06;;;;;;;;;;;3.10;99.90;;;;;;4984499;28;19969;-82
2022/01/31 13:05:34;;;;;;;;;;;3.10;99.90;;;;;;5004309;28;19930;-81
2022/01/31 13:08:01;;;;;;;;;;;3.00;99.90;;;;;;4998879;28;20044;-81
2022/01/31 13:10:38;;;;;;;;;;;3.10;99.90;;;;;;4994326;28;19933;-81
2022/01/31 13:13:06;;;;;;;;;;;3.10;99.90;;;;;;4983701;28;19926;-82
2022/01/31 13:15:34;;;;;;;;;;;3.10;99.90;;;;;;5101201;23;19931;-81
2022/01/31 13:18:04;;;;;;;;;;;3.10;99.90;;;;;;4969617;28;19986;-81
2022/01/31 13:20:33;;;;;;;;;;;3.00;99.90;;;;;;5785637;23;19948;-81
2022/01/31 13:23:03;;;;;;;;;;;3.00;99.90;;;;;;4957855;28;19927;-81
2022/01/31 13:25:33;;;;;;;;;;;3.00;99.90;;;;;;4960505;28;19926;-82
2022/01/31 13:28:08;;;;;;;;;;;3.00;99.90;;;;;;5362345;23;19944;-79
2022/01/31 13:30:36;;;;;;;;;;;3.00;99.90;;;;;;4979833;28;19926;-82
2022/01/31 13:35:55;;;;;;;;;;;3.00;99.90;;;;;;4947615;23;19930;-80
2022/01/31 13:38:22;;;;;;;;;;;3.10;99.90;;;;;;4996484;28;19926;-82
2022/01/31 13:40:52;;;;;;;;;;;3.00;99.90;;;;;;4992120;28;19933;-82
2022/01/31 13:45:55;;;;;;;;;;;3.00;99.90;;;;;;4976119;28;20320;-80
2022/01/31 13:48:39;;;;;;;;;;;2.90;99.90;;;;;;4993202;28;20303;-80
2022/01/31 13:51:12;;;;;;;;;;;3.00;99.90;;;;;;4991203;28;19930;-80
2022/01/31 13:53:40;;;;;;;;;;;3.00;99.90;;;;;;4995078;28;19935;-80
2022/01/31 13:56:08;;;;;;;;;;;3.00;99.90;;;;;;4987211;28;19961;-82
2022/01/31 13:58:38;;;;;;;;;;;3.00;99.90;;;;;;5025323;22;19926;-80
2022/01/31 14:01:07;;;;;;;;;;;3.00;99.90;;;;;;5192088;22;19926;-80
2022/01/31 14:03:40;;;;;;;;;;;3.00;99.90;;;;;;4992065;28;19932;-82
2022/01/31 14:06:09;;;;;;;;;;;2.90;99.90;;;;;;4993177;28;19926;-81
2022/01/31 14:08:39;;;;;;;;;;;3.00;99.90;;;;;;4993633;28;19929;-80
2022/01/31 14:11:08;;;;;;;;;;;2.90;99.90;;;;;;4991203;28;19926;-80
2022/01/31 14:13:36;;;;;;;;;;;2.90;99.90;;;;;;4993226;28;19926;-80
2022/01/31 14:16:03;;;;;;;;;;;2.90;99.90;;;;;;4990276;28;19945;-82
2022/01/31 14:18:33;;;;;;;;;;;2.90;99.90;;;;;;4991347;28;19977;-82
2022/01/31 14:21:03;;;;;;;;;;;2.90;99.90;;;;;;4990614;28;19934;-80
2022/01/31 14:23:33;;;;;;;;;;;2.90;99.90;;;;;;4996500;28;19934;-80
2022/01/31 14:26:00;;;;;;;;;;;2.90;99.90;;;;;;4994720;28;19965;-80
2022/01/31 14:28:33;;;;;;;;;;;2.90;99.90;;;;;;4993456;28;19998;-80
2022/01/31 14:31:00;;;;;;;;;;;2.90;99.90;;;;;;4995563;28;19965;-80
2022/01/31 14:33:27;;;;;;;;;;;2.90;99.90;;;;;;4990594;28;19970;-80
2022/01/31 14:36:02;;;;;;;;;;;2.90;99.90;;;;;;4989151;28;20058;-82
2022/01/31 14:38:35;;;;;;;;;;;2.90;99.90;;;;;;4994104;28;20001;-80
2022/01/31 14:49:21;;;;;;;;;;;2.90;99.90;;;;;;4991048;28;19922;-80
2022/01/31 14:51:50;;;;;;;;;;;2.90;99.90;;;;;;4990996;28;19933;-81
2022/01/31 14:54:18;;;;;;;;;;;2.90;99.90;;;;;;4992993;28;19930;-81
2022/01/31 14:56:46;;;;;;;;;;;2.80;99.90;;;;;;4995275;28;19958;-82
2022/01/31 14:59:14;;;;;;;;;;;2.80;99.90;;;;;;4998051;28;19926;-81
2022/01/31 15:01:41;;;;;;;;;;;2.90;99.90;;;;;;4998361;28;20542;-82
2022/01/31 15:04:17;;;;;;;;;;;2.80;99.90;;;;;;4987745;28;19985;-81
2022/01/31 15:06:44;;;;;;;;;;;2.80;99.90;;;;;;4996599;28;19914;-81
2022/01/31 15:09:13;;;;;;;;;;;2.80;99.90;;;;;;4996827;28;20024;-81
2022/01/31 15:11:40;;;;;;;;;;;2.80;99.90;;;;;;4992454;28;19930;-81
2022/01/31 15:14:07;;;;;;;;;;;2.80;99.90;;;;;;4990940;28;20315;-82
2022/01/31 15:16:35;;;;;;;;;;;2.80;99.90;;;;;;4995123;28;19926;-82
2022/01/31 15:19:02;;;;;;;;;;;2.80;99.90;;;;;;5000908;28;19986;-80
2022/01/31 15:21:33;;;;;;;;;;;2.80;99.90;;;;;;5000139;28;19932;-82
2022/01/31 15:24:01;;;;;;;;;;;2.80;99.90;;;;;;5005036;28;19926;-81
2022/01/31 15:26:30;;;;;;;;;;;2.80;99.90;;;;;;4996887;28;19953;-81
2022/01/31 15:28:57;;;;;;;;;;;2.80;99.90;;;;;;4996280;28;20020;-81
2022/01/31 15:31:25;;;;;;;;;;;2.80;99.90;;;;;;4997674;28;19930;-82
2022/01/31 15:33:53;;;;;;;;;;;2.80;99.90;;;;;;4988440;28;19926;-81
2022/01/31 15:36:20;;;;;;;;;;;2.70;99.90;;;;;;4983726;28;19926;-84
2022/01/31 15:38:50;;;;;;;;;;;2.70;99.90;;;;;;4985244;28;19914;-81
2022/01/31 15:41:18;;;;;;;;;;;2.70;99.90;;;;;;4986403;28;20016;-80
2022/01/31 15:43:47;;;;;;;;;;;2.70;99.90;;;;;;4987191;28;19993;-82
2022/01/31 15:46:15;;;;;;;;;;;2.80;99.90;;;;;;4987284;28;19961;-80
2022/01/31 15:48:42;;;;;;;;;;;2.70;99.90;;;;;;4994881;28;19929;-81
2022/01/31 15:51:10;;;;;;;;;;;2.70;99.90;;;;;;4995137;28;19930;-81
2022/01/31 15:53:37;;;;;;;;;;;2.70;99.90;;;;;;4986529;28;19910;-82
2022/01/31 15:56:05;;;;;;;;;;;2.70;99.90;;;;;;4993975;28;19927;-80
2022/01/31 15:58:32;;;;;;;;;;;2.70;99.90;;;;;;4990684;28;19958;-81
2022/01/31 16:01:09;;;;;;;;;;;2.60;99.90;;;;;;4990496;28;19910;-81
2022/01/31 16:03:37;;;;;;;;;;;2.60;99.90;;;;;;4994806;28;19944;-84
2022/01/31 16:06:05;;;;;;;;;;;2.60;99.90;;;;;;4994335;28;19926;-80
2022/01/31 16:08:32;;;;;;;;;;;2.60;99.90;;;;;;4987891;28;19958;-81
2022/01/31 16:11:01;;;;;;;;;;;2.60;99.90;;;;;;4987447;28;19933;-81
2022/01/31 16:13:28;;;;;;;;;;;2.60;99.90;;;;;;4985607;28;19927;-80
2022/01/31 16:15:56;;;;;;;;;;;2.60;99.90;;;;;;4985437;28;19926;-80
2022/01/31 16:18:25;;;;;;;;;;;2.60;99.90;;;;;;4975261;28;19926;-79
2022/01/31 16:20:53;;;;;;;;;;;2.60;99.90;;;;;;4974247;28;19930;-79
2022/01/31 16:23:20;;;;;;;;;;;2.60;99.90;;;;;;4980261;28;21392;-80
2022/01/31 16:25:48;;;;;;;;;;;2.60;99.90;;;;;;4977596;28;20392;-80
2022/01/31 16:28:20;;;;;;;;;;;2.50;99.90;;;;;;4974995;28;19961;-81
2022/01/31 16:30:47;;;;;;;;;;;2.50;99.90;;;;;;4975037;28;20029;-79
2022/01/31 16:33:16;;;;;;;;;;;2.50;99.90;;;;;;4980529;28;19930;-80
2022/01/31 16:35:48;;;;;;;;;;;2.50;99.90;;;;;;4979745;28;19993;-82
2022/01/31 16:38:16;;;;;;;;;;;2.50;99.90;;;;;;4982340;28;19926;-80
2022/01/31 16:40:43;;;;;;;;;;;2.50;99.90;;;;;;4977818;28;19926;-80
2022/01/31 16:43:11;;;;;;;;;;;2.50;99.90;;;;;;4997452;28;19981;-80
2022/01/31 16:45:40;;;;;;;;;;;2.50;99.90;;;;;;4988519;28;19941;-80
2022/01/31 16:48:08;;;;;;;;;;;2.50;99.90;;;;;;4997722;28;19984;-80
2022/01/31 16:50:36;;;;;;;;;;;2.50;99.90;;;;;;4977660;28;19926;-80
2022/01/31 16:53:06;;;;;;;;;;;2.50;99.90;;;;;;4979310;28;19985;-80
2022/01/31 16:55:39;;;;;;;;;;;2.50;99.90;;;;;;4981124;28;20352;-80
2022/01/31 16:58:06;;;;;;;;;;;2.40;99.90;;;;;;4996111;28;19985;-81
2022/01/31 17:00:34;;;;;;;;;;;2.50;99.90;;;;;;4978595;28;19933;-83
2022/01/31 17:03:03;;;;;;;;;;;2.50;99.90;;;;;;4968483;28;19997;-81
2022/01/31 17:05:31;;;;;;;;;;;2.40;99.90;;;;;;4991162;28;19927;-80
2022/01/31 17:08:00;;;;;;;;;;;2.40;99.90;;;;;;4987350;28;19953;-83
2022/01/31 17:10:28;;;;;;;;;;;2.50;99.90;;;;;;4983412;28;19941;-81
2022/01/31 17:12:55;;;;;;;;;;;2.40;99.90;;;;;;4974500;28;19972;-80
2022/01/31 17:15:22;;;;;;;;;;;2.40;99.90;;;;;;4979784;28;19926;-79
2022/01/31 17:17:50;;;;;;;;;;;2.40;99.90;;;;;;4973913;28;19958;-80
2022/01/31 17:20:18;;;;;;;;;;;2.40;99.90;;;;;;4977100;28;19934;-80
2022/01/31 17:22:45;;;;;;;;;;;2.40;99.90;;;;;;4970498;28;20436;-82
2022/01/31 17:25:14;;;;;;;;;;;2.40;99.90;;;;;;4974895;28;19938;-82
2022/01/31 17:27:42;;;;;;;;;;;2.50;99.90;;;;;;4982580;28;19949;-80
2022/01/31 17:30:10;;;;;;;;;;;2.40;99.90;;;;;;4972929;28;19965;-79